Time;durP1;ratioP1;P1;durP2;ratioP2;P2;SDS_P1;SDS_P2;PMS_P1;PMS_P2;Temp;Humidity;BMP_temperature;BMP_pressure;BME280_temperature;BME280_humidity;BME280_pressure;Samples;Min_cycle;Max_cycle;Signal;HPM_P1;HPM_P2
2023/02/06 00:00:56;;;;;;;8.50;2.92;;;4.70;99.90;;;;;;20547060;28;20045;-42
2023/02/06 00:11:02;;;;;;;15.13;3.50;;;4.70;99.90;;;;;;20545955;28;20429;-42
2023/02/06 00:21:03;;;;;;;7.25;2.88;;;4.80;99.90;;;;;;20547853;28;21382;-42
2023/02/06 00:31:05;;;;;;;4.40;2.20;;;4.80;99.90;;;;;;20544813;28;20402;-42
2023/02/06 00:41:06;;;;;;;4.18;1.80;;;4.90;99.90;;;;;;20555777;28;20050;-42
2023/02/06 00:51:07;;;;;;;8.70;2.45;;;4.80;99.90;;;;;;20543677;28;20133;-42
2023/02/06 01:01:08;;;;;;;9.80;2.25;;;4.80;99.90;;;;;;20561299;28;20038;-42
2023/02/06 01:11:19;;;;;;;13.65;2.28;;;4.70;99.90;;;;;;20555905;28;20046;-42
2023/02/06 01:21:23;;;;;;;14.65;2.85;;;4.80;99.90;;;;;;20562233;28;20042;-42
2023/02/06 01:31:27;;;;;;;5.93;2.17;;;4.80;99.90;;;;;;20567219;28;20050;-42
2023/02/06 01:41:28;;;;;;;18.58;3.50;;;4.70;99.90;;;;;;20563567;28;20513;-42
2023/02/06 01:51:29;;;;;;;6.18;2.03;;;4.60;99.90;;;;;;20556503;28;20054;-42
2023/02/06 02:01:32;;;;;;;6.80;2.28;;;4.70;99.90;;;;;;20555048;28;20027;-42
2023/02/06 02:11:36;;;;;;;5.03;1.60;;;4.70;99.90;;;;;;20551735;28;20042;-42
2023/02/06 02:22:00;;;;;;;8.27;1.48;;;4.70;99.90;;;;;;20549770;28;20509;-42
2023/02/06 02:32:27;;;;;;;13.85;2.58;;;4.60;99.90;;;;;;20514001;28;20043;-42
2023/02/06 02:43:08;;;;;;;8.95;3.25;;;4.50;99.90;;;;;;20551780;28;20054;-42
2023/02/06 02:53:10;;;;;;;12.40;2.47;;;4.30;99.90;;;;;;20516426;28;20065;-42
2023/02/06 03:03:14;;;;;;;4.85;2.17;;;4.10;99.90;;;;;;20552013;28;20046;-42
2023/02/06 03:13:29;;;;;;;4.18;1.27;;;3.90;99.90;;;;;;20550491;28;20038;-42
2023/02/06 03:23:34;;;;;;;2.58;1.10;;;3.80;99.90;;;;;;20552216;28;20415;-42
2023/02/06 03:33:48;;;;;;;7.80;1.98;;;3.90;99.90;;;;;;20546733;28;20050;-42
2023/02/06 03:43:52;;;;;;;12.98;2.65;;;3.90;99.90;;;;;;20544651;28;20046;-42
2023/02/06 03:53:55;;;;;;;4.72;1.02;;;3.80;99.90;;;;;;20542893;28;20525;-42
2023/02/06 04:03:57;;;;;;;5.32;1.60;;;3.60;99.90;;;;;;20539871;28;20546;-42
2023/02/06 04:13:58;;;;;;;2.53;1.20;;;3.40;99.90;;;;;;20538916;28;20414;-42
2023/02/06 04:23:59;;;;;;;2.70;1.60;;;3.30;99.90;;;;;;20534965;28;20051;-42
2023/02/06 04:34:00;;;;;;;2.80;1.00;;;3.30;99.90;;;;;;20538632;28;20081;-42
2023/02/06 04:44:01;;;;;;;3.20;1.67;;;3.30;99.90;;;;;;20537027;28;20053;-42
2023/02/06 04:54:03;;;;;;;4.13;1.77;;;3.20;99.90;;;;;;20532450;28;20042;-42
2023/02/06 05:04:04;;;;;;;4.10;1.27;;;3.10;99.90;;;;;;20540124;28;20047;-42
2023/02/06 05:14:05;;;;;;;3.85;2.03;;;3.00;99.90;;;;;;20535671;28;20418;-42
2023/02/06 05:24:07;;;;;;;2.60;0.80;;;2.90;99.90;;;;;;20545723;28;20041;-42
2023/02/06 05:34:09;;;;;;;4.07;1.70;;;3.00;99.90;;;;;;20553533;28;20430;-42
2023/02/06 05:44:10;;;;;;;3.65;1.60;;;2.90;99.90;;;;;;20551021;28;20045;-41
2023/02/06 05:54:12;;;;;;;6.20;1.98;;;2.80;99.90;;;;;;20549014;28;20050;-42
2023/02/06 06:04:13;;;;;;;10.32;1.80;;;2.70;99.90;;;;;;20550769;28;20509;-42
2023/02/06 06:14:14;;;;;;;3.35;1.80;;;2.80;99.90;;;;;;20550606;28;20049;-41
2023/02/06 06:24:15;;;;;;;3.83;1.95;;;3.00;99.90;;;;;;20548688;28;20730;-42
2023/02/06 06:34:16;;;;;;;7.38;2.30;;;2.90;99.90;;;;;;20551828;28;20568;-42
2023/02/06 06:44:17;;;;;;;3.95;1.85;;;3.00;99.90;;;;;;20541705;28;20686;-42
2023/02/06 06:54:18;;;;;;;7.13;1.58;;;2.90;99.90;;;;;;20539538;28;20050;-42
2023/02/06 07:04:20;;;;;;;3.90;1.67;;;3.00;99.90;;;;;;20546845;28;20046;-42
2023/02/06 07:14:21;;;;;;;3.70;1.90;;;3.10;99.90;;;;;;20563057;28;20057;-42
2023/02/06 07:24:22;;;;;;;4.50;1.98;;;3.10;99.90;;;;;;20568959;28;20039;-42
2023/02/06 07:34:23;;;;;;;11.93;2.83;;;3.20;99.90;;;;;;20564222;28;20053;-42
2023/02/06 07:44:24;;;;;;;5.57;2.88;;;3.20;99.90;;;;;;20562280;28;20050;-41
2023/02/06 07:54:25;;;;;;;3.78;2.00;;;3.30;99.90;;;;;;20559233;28;20696;-42
2023/02/06 08:04:28;;;;;;;5.03;2.10;;;3.30;99.90;;;;;;20553491;28;20042;-42
2023/02/06 08:14:30;;;;;;;8.55;4.82;;;3.50;99.90;;;;;;20566533;28;20115;-42
2023/02/06 08:24:32;;;;;;;15.07;3.03;;;3.60;99.90;;;;;;20551276;28;20612;-42
2023/02/06 08:34:34;;;;;;;6.25;2.63;;;3.80;99.90;;;;;;20551106;28;20030;-42
2023/02/06 08:44:35;;;;;;;3.38;1.70;;;4.00;99.90;;;;;;20545303;28;20043;-42
2023/02/06 08:54:36;;;;;;;3.58;2.08;;;4.20;99.90;;;;;;20547488;28;20446;-42
2023/02/06 09:04:37;;;;;;;7.53;2.45;;;4.40;99.90;;;;;;20559845;28;20122;-42
2023/02/06 09:14:39;;;;;;;6.75;3.47;;;4.60;99.90;;;;;;20567434;28;20045;-42
2023/02/06 09:24:40;;;;;;;5.25;2.22;;;4.70;99.90;;;;;;20542108;28;20390;-42
2023/02/06 09:34:41;;;;;;;8.43;2.08;;;5.10;99.90;;;;;;20549360;28;21570;-42
2023/02/06 09:44:55;;;;;;;8.75;2.05;;;5.30;99.90;;;;;;20546283;28;20041;-42
2023/02/06 09:55:07;;;;;;;6.55;1.92;;;5.40;99.90;;;;;;20547580;28;20049;-42
2023/02/06 10:05:37;;;;;;;4.93;2.33;;;5.60;99.90;;;;;;20549365;28;20527;-42
2023/02/06 10:15:45;;;;;;;14.15;3.38;;;6.00;99.90;;;;;;20561019;28;21296;-42
2023/02/06 10:25:52;;;;;;;4.05;1.65;;;6.20;99.90;;;;;;20560752;28;20038;-42
2023/02/06 10:36:06;;;;;;;7.72;1.52;;;6.40;99.90;;;;;;20560159;28;20055;-42
2023/02/06 10:46:38;;;;;;;3.75;1.52;;;6.60;99.90;;;;;;20550523;28;20545;-42
2023/02/06 10:56:43;;;;;;;11.00;3.55;;;7.00;99.90;;;;;;20553048;28;20042;-42
2023/02/06 11:06:45;;;;;;;13.45;2.90;;;7.70;99.90;;;;;;20559411;28;20027;-42
2023/02/06 11:16:47;;;;;;;5.85;1.55;;;8.20;99.90;;;;;;20563904;28;20501;-42
2023/02/06 11:26:56;;;;;;;7.28;1.60;;;8.10;99.90;;;;;;20554199;28;20035;-42
2023/02/06 11:37:05;;;;;;;4.20;2.13;;;8.30;87.20;;;;;;20558717;28;20414;-42
2023/02/06 11:47:25;;;;;;;4.63;1.48;;;8.60;71.70;;;;;;20562716;28;20505;-42
2023/02/06 11:57:28;;;;;;;6.38;2.70;;;9.10;37.70;;;;;;20545889;28;20648;-42
2023/02/06 12:07:41;;;;;;;3.22;1.45;;;9.70;31.20;;;;;;20554227;28;20054;-42
2023/02/06 12:17:46;;;;;;;5.90;1.52;;;9.40;22.60;;;;;;20560249;28;20465;-42
2023/02/06 12:27:49;;;;;;;5.93;2.35;;;9.00;21.80;;;;;;20558569;28;20050;-42
2023/02/06 12:37:55;;;;;;;5.68;1.73;;;9.50;19.30;;;;;;20555674;28;20055;-42
2023/02/06 12:48:11;;;;;;;7.97;2.30;;;10.30;13.90;;;;;;20561794;28;20299;-42
2023/02/06 12:58:37;;;;;;;6.85;0.80;;;10.50;9.40;;;;;;20558276;28;20321;-42
2023/02/06 13:08:55;;;;;;;2.92;1.27;;;10.30;8.10;;;;;;20556739;28;20989;-42
2023/02/06 13:19:02;;;;;;;17.92;1.92;;;11.00;6.90;;;;;;20550683;28;20054;-42
2023/02/06 13:29:03;;;;;;;2.50;1.70;;;10.80;3.20;;;;;;20570377;28;20122;-42
2023/02/06 13:39:23;;;;;;;3.33;1.15;;;10.80;4.60;;;;;;20568546;28;20357;-42
2023/02/06 13:49:53;;;;;;;3.88;1.15;;;11.30;3.60;;;;;;20567822;28;20445;-42
2023/02/06 14:00:00;;;;;;;3.53;1.02;;;11.90;1.10;;;;;;20564166;28;21029;-42
2023/02/06 14:10:25;;;;;;;4.37;1.07;;;11.50;1.00;;;;;;20567114;28;20070;-42
2023/02/06 14:20:51;;;;;;;3.00;0.80;;;11.20;1.00;;;;;;20566863;28;20182;-41
2023/02/06 14:31:13;;;;;;;3.70;1.55;;;10.70;1.00;;;;;;20559412;28;20050;-42
2023/02/06 14:41:15;;;;;;;1.33;0.55;;;10.70;1.00;;;;;;20529758;28;21355;-42
2023/02/06 14:51:26;;;;;;;2.33;1.20;;;10.00;1.00;;;;;;20559745;28;20038;-42
2023/02/06 15:01:27;;;;;;;6.20;1.77;;;9.10;1.40;;;;;;20571570;28;20050;-41
2023/02/06 15:11:31;;;;;;;4.47;0.90;;;9.30;4.40;;;;;;20562400;28;20493;-41
2023/02/06 15:21:33;;;;;;;3.55;0.68;;;10.20;1.00;;;;;;20557998;28;20306;-41
2023/02/06 15:31:34;;;;;;;3.47;0.68;;;9.40;1.00;;;;;;20557796;28;20043;-41
2023/02/06 15:41:38;;;;;;;6.80;2.17;;;8.90;1.00;;;;;;20556008;28;20043;-41
2023/02/06 15:51:49;;;;;;;21.60;2.72;;;8.50;4.40;;;;;;20553947;28;20042;-41
2023/02/06 16:01:53;;;;;;;6.65;1.63;;;8.20;7.50;;;;;;20562337;28;20046;-41
2023/02/06 16:11:55;;;;;;;2.20;0.60;;;8.00;11.20;;;;;;20560729;28;20042;-41
2023/02/06 16:22:05;;;;;;;2.38;1.33;;;7.80;12.90;;;;;;20558497;28;20042;-41
2023/02/06 16:32:20;;;;;;;7.57;2.13;;;7.60;17.00;;;;;;20553492;28;21324;-41
2023/02/06 16:42:31;;;;;;;2.65;0.93;;;7.30;19.20;;;;;;20545411;28;20046;-41
2023/02/06 16:52:33;;;;;;;4.63;0.90;;;7.00;22.50;;;;;;20553692;28;20614;-41
2023/02/06 17:02:34;;;;;;;7.25;2.58;;;6.90;27.10;;;;;;20561538;28;20042;-41
2023/02/06 17:12:35;;;;;;;2.75;1.00;;;6.70;32.20;;;;;;20547709;28;20034;-41
2023/02/06 17:22:36;;;;;;;5.03;2.25;;;6.60;36.10;;;;;;20560722;28;20039;-41
2023/02/06 17:32:37;;;;;;;5.50;1.50;;;6.60;39.80;;;;;;20572992;28;20039;-41
2023/02/06 17:42:38;;;;;;;2.92;1.45;;;6.30;43.10;;;;;;20575019;28;20042;-41
2023/02/06 17:52:39;;;;;;;3.97;1.10;;;6.20;43.20;;;;;;20576704;28;20034;-41
2023/02/06 18:02:40;;;;;;;7.60;1.70;;;6.20;49.90;;;;;;20583750;28;20042;-41
2023/02/06 18:12:41;;;;;;;3.33;0.80;;;6.00;55.90;;;;;;20566669;28;20034;-42
2023/02/06 18:22:42;;;;;;;5.55;2.08;;;6.00;63.70;;;;;;20560055;28;20038;-43
2023/02/06 18:32:43;;;;;;;4.45;1.70;;;6.00;68.90;;;;;;20551136;28;20042;-42
2023/02/06 18:42:52;;;;;;;3.75;1.73;;;5.90;72.40;;;;;;20505158;28;20038;-42
2023/02/06 18:52:53;;;;;;;4.80;1.85;;;5.70;68.70;;;;;;20545897;28;20101;-42
2023/02/06 19:02:56;;;;;;;2.88;1.65;;;5.60;65.70;;;;;;20547960;28;20042;-42
2023/02/06 19:12:58;;;;;;;14.20;7.32;;;5.30;64.30;;;;;;20557815;28;20363;-43
2023/02/06 19:22:59;;;;;;;11.93;5.15;;;5.10;65.60;;;;;;20534039;28;20394;-42
2023/02/06 19:33:00;;;;;;;7.60;3.72;;;5.00;63.90;;;;;;20542895;28;20046;-42
2023/02/06 19:43:01;;;;;;;3.72;1.98;;;4.80;66.90;;;;;;20545537;28;20042;-42
2023/02/06 19:53:02;;;;;;;10.00;2.85;;;4.70;66.10;;;;;;20546140;28;20241;-42
2023/02/06 20:03:03;;;;;;;6.40;2.78;;;4.40;73.80;;;;;;20547906;28;21123;-42
2023/02/06 20:13:05;;;;;;;9.23;3.47;;;4.40;75.10;;;;;;20543872;28;20045;-42
2023/02/06 20:23:06;;;;;;;6.55;3.17;;;4.30;74.30;;;;;;20548780;28;20039;-42
2023/02/06 20:33:07;;;;;;;5.00;2.00;;;4.10;78.90;;;;;;20546001;28;20049;-42
2023/02/06 20:43:08;;;;;;;5.30;2.45;;;4.10;67.70;;;;;;20529793;28;20042;-43
2023/02/06 20:53:09;;;;;;;6.20;2.50;;;4.00;69.20;;;;;;20532475;28;20069;-43
2023/02/06 21:03:10;;;;;;;13.10;3.65;;;3.70;73.60;;;;;;20554455;28;20380;-43
2023/02/06 21:13:11;;;;;;;12.80;3.38;;;3.60;70.00;;;;;;20551809;28;20039;-42
2023/02/06 21:23:12;;;;;;;7.20;2.97;;;3.50;75.80;;;;;;20547519;28;20043;-43
2023/02/06 21:33:15;;;;;;;11.15;3.80;;;3.40;74.90;;;;;;20547329;28;20049;-42
2023/02/06 21:43:16;;;;;;;6.93;3.00;;;3.30;76.70;;;;;;20541876;28;20505;-43
2023/02/06 21:53:17;;;;;;;6.45;3.38;;;3.10;88.00;;;;;;20546891;28;20268;-43
2023/02/06 22:03:21;;;;;;;11.00;4.20;;;3.00;94.80;;;;;;20556004;28;20378;-43
2023/02/06 22:13:22;;;;;;;12.57;5.00;;;2.90;98.20;;;;;;20552327;28;20058;-43
2023/02/06 22:23:23;;;;;;;11.13;5.93;;;2.90;86.60;;;;;;20553021;28;20094;-43
2023/02/06 22:33:24;;;;;;;10.70;5.18;;;2.90;79.90;;;;;;20553942;28;20406;-43
2023/02/06 22:43:26;;;;;;;8.55;3.75;;;2.80;92.10;;;;;;20551577;28;20043;-43
2023/02/06 22:53:30;;;;;;;6.75;3.63;;;2.80;80.00;;;;;;20550242;28;20050;-43
2023/02/06 23:03:31;;;;;;;10.23;4.93;;;2.60;85.50;;;;;;20548429;28;20658;-43
2023/02/06 23:13:33;;;;;;;8.13;3.85;;;2.40;93.90;;;;;;20551284;28;20062;-43
2023/02/06 23:23:34;;;;;;;16.70;4.05;;;2.40;93.10;;;;;;20539442;28;20050;-43
2023/02/06 23:33:35;;;;;;;6.78;3.60;;;2.30;99.90;;;;;;20546555;28;20513;-43
2023/02/06 23:43:37;;;;;;;5.70;2.38;;;2.30;99.90;;;;;;20545010;28;20050;-43
2023/02/06 23:53:37;;;;;;;6.28;2.42;;;2.20;99.90;;;;;;20542520;28;22276;-43
